Aviation Digital Data Service (ADDS)

Output produced by TAFs form (1308 UTC 30 July 2014)
found at http://www.aviationweather.gov/adds/tafs/
 
KBJC 301247Z 03005KT 1 1/2SM RA OVC003 14/14 A3032
KBJC 301121Z 3012/3112 34007KT P6SM SCT003 OVC008 
     TEMPO 3012/3015 3SM -RA BR BKN003 
     FM301500 34012KT P6SM SCT006 BKN012 OVC025 
     TEMPO 3015/3019 4SM -RA BR BKN006 OVC015 
     FM301900 34010KT P6SM VCTS SCT025CB OVC035 
     TEMPO 3019/3023 5SM -SHRA BKN025 
     FM302300 34008KT P6SM SCT035 BKN060 
     PROB30 3023/3102 -SHRA BKN040 
     FM310400 22006KT P6SM SCT045 BKN080